Portada
METAR-TAF:

METAR-TAF

Aeroports :

Châteaudun, França

latitud: 48-03N, longitud: 001-23E, altitud: 134 m

Observació

L'informe es va fer fa 44 minuts, a les 22:00 UTC
Vent 4 kt del Est
Temperatura 19°C
Humitat 64%
Pressió 1017 hPa
Visibilitat 10 km o més
sense núvols per sota de 1500 mi sense presència de cumulonimbus.

METAR: LFOC 242200Z AUTO 09004KT CAVOK 19/12 Q1017

Hora: 00:44 (22:44 UTC)

Pronòstic

L'informe es va fer fa 38 hores i 44 minuts, a les 08:00 UTC
Pronòstic vàlid del 23 a les 09 UTC al 24 a les 09 UTC
Vent 10 kt del Est/Nord-Est
Visibilitat 10 km o més
sense núvols per sota de 1500 mi sense presència de cumulonimbus.

TAF: LFOC 230800Z 2309/2409 06010KT CAVOK

Observacions i pronòstics meteorològics de més de 4000 aeroports (METAR i TAF).

Les estacions disponibles són els punts grocs i vermells al mapa.

Posi el ratolí al punt desitjat per veure el nom de l'estació.

Feu clic per veure les observacions i els pronòstics meteorològics.

Per canviar el mapa: feu clic els botons verds amb una creu de color negre per apropar; al botó verd amb un guió per allunyar la imatge; o en les fletxes verdes per a mapes adjacents.


METAR-TAF: